createdAt,value
2019-05-01T00:02:00.906Z,40.40
2019-05-01T00:04:20.071Z,40.50
2019-05-01T00:06:22.742Z,40.40
2019-05-01T00:08:25.341Z,40.40
2019-05-01T00:10:28.009Z,40.60
2019-05-01T00:12:31.391Z,40.90
2019-05-01T00:14:33.998Z,40.90
2019-05-01T00:16:36.754Z,41.00
2019-05-01T00:18:40.105Z,41.70
2019-05-01T00:20:42.704Z,41.10
2019-05-01T00:22:45.318Z,41.10
2019-05-01T00:24:47.910Z,41.10
2019-05-01T00:26:51.139Z,41.20
2019-05-01T00:28:53.812Z,41.20
2019-05-01T00:30:56.390Z,41.40
2019-05-01T00:32:59.744Z,42.20
2019-05-01T00:35:02.457Z,41.70
2019-05-01T00:37:05.034Z,41.70
2019-05-01T00:39:08.386Z,42.30
2019-05-01T00:41:10.996Z,41.90
2019-05-01T00:43:15.073Z,42.00
2019-05-01T00:45:17.709Z,42.00
2019-05-01T00:47:21.064Z,42.10
2019-05-01T00:49:23.753Z,42.10
2019-05-01T00:51:27.243Z,42.60
2019-05-01T00:53:29.918Z,42.20
2019-05-01T00:55:40.106Z,42.20
2019-05-01T00:57:43.349Z,42.40
2019-05-01T00:59:46.036Z,42.40
2019-05-01T01:02:04.447Z,42.50
2019-05-01T01:04:07.146Z,42.70
2019-05-01T01:06:09.833Z,42.60
2019-05-01T01:08:12.634Z,42.80
2019-05-01T01:10:15.991Z,43.00
2019-05-01T01:12:18.565Z,43.00
2019-05-01T01:14:21.277Z,43.00
2019-05-01T01:16:24.630Z,43.20
2019-05-01T01:18:27.323Z,43.10
2019-05-01T01:20:29.925Z,43.20
2019-05-01T01:22:32.520Z,43.30
2019-05-01T01:24:35.130Z,43.30
2019-05-01T01:26:37.779Z,43.40
2019-05-01T01:28:40.379Z,43.40
2019-05-01T01:30:55.134Z,43.40
2019-05-01T01:32:45.665Z,43.50
2019-05-01T01:34:49.023Z,43.50
2019-05-01T01:36:51.634Z,43.40
2019-05-01T01:38:55.184Z,43.50
2019-05-01T01:40:57.781Z,43.50
2019-05-01T01:43:16.081Z,43.60
2019-05-01T01:45:20.656Z,43.70
2019-05-01T01:47:24.036Z,43.70
2019-05-01T01:49:26.629Z,43.70
2019-05-01T01:51:30.106Z,43.80
2019-05-01T01:53:32.696Z,43.80
2019-05-01T01:55:36.163Z,43.90
2019-05-01T01:57:38.813Z,44.00
2019-05-01T01:59:41.424Z,44.00
2019-05-01T02:01:55.756Z,44.10
2019-05-01T02:04:00.728Z,44.20
2019-05-01T02:06:04.199Z,44.20
2019-05-01T02:08:08.928Z,44.20
2019-05-01T02:10:10.462Z,44.20
2019-05-01T02:12:13.012Z,44.20
2019-05-01T02:14:15.604Z,44.30
2019-05-01T02:16:18.251Z,44.30
2019-05-01T02:18:20.856Z,44.30
2019-05-01T02:20:23.547Z,44.40
2019-05-01T02:22:26.175Z,44.40
2019-05-01T02:24:28.765Z,44.40
2019-05-01T02:26:31.468Z,44.50
2019-05-01T02:28:34.879Z,44.40
2019-05-01T02:30:38.458Z,44.40
2019-05-01T02:32:41.057Z,44.40
2019-05-01T02:34:44.448Z,44.50
2019-05-01T02:36:47.920Z,44.60
2019-05-01T02:38:52.030Z,44.60
2019-05-01T02:40:54.662Z,44.60
2019-05-01T02:42:57.273Z,44.60
2019-05-01T02:44:59.877Z,44.60
2019-05-01T02:47:05.329Z,44.70
2019-05-01T02:49:15.487Z,44.70
2019-05-01T02:51:18.107Z,44.70
2019-05-01T02:53:20.731Z,44.70
2019-05-01T02:55:24.085Z,44.70
2019-05-01T02:57:26.697Z,44.70
2019-05-01T02:59:29.365Z,44.80
2019-05-01T03:01:46.300Z,45.50
2019-05-01T03:03:35.423Z,44.90
2019-05-01T03:05:38.136Z,44.90
2019-05-01T03:07:40.770Z,44.90
2019-05-01T03:09:44.153Z,45.10
2019-05-01T03:11:46.781Z,45.00
2019-05-01T03:13:49.381Z,45.10
2019-05-01T03:15:52.074Z,45.10
2019-05-01T03:17:59.459Z,45.00
2019-05-01T03:20:02.664Z,45.00
2019-05-01T03:22:10.672Z,45.10
2019-05-01T03:24:19.102Z,45.00
2019-05-01T03:26:21.841Z,45.00
2019-05-01T03:28:25.217Z,45.20
2019-05-01T03:30:27.866Z,45.10
2019-05-01T03:32:30.482Z,45.20
2019-05-01T03:34:34.595Z,45.30
2019-05-01T03:36:37.216Z,45.30
2019-05-01T03:38:39.841Z,45.40
2019-05-01T03:40:42.454Z,45.30
2019-05-01T03:42:45.089Z,45.90
2019-05-01T03:44:48.572Z,45.40
2019-05-01T03:46:51.165Z,45.30
2019-05-01T03:48:54.570Z,45.70
2019-05-01T03:50:57.930Z,45.60
2019-05-01T03:53:00.617Z,45.50
2019-05-01T03:55:03.255Z,45.60
2019-05-01T03:57:05.970Z,45.70
2019-05-01T03:59:08.647Z,45.70
2019-05-01T04:01:29.035Z,45.70
2019-05-01T04:03:31.640Z,45.70
2019-05-01T04:05:34.264Z,45.50
2019-05-01T04:07:37.005Z,45.60
2019-05-01T04:09:39.621Z,45.60
2019-05-01T04:11:42.314Z,45.70
2019-05-01T04:13:44.957Z,45.90
2019-05-01T04:15:47.565Z,46.00
2019-05-01T04:17:50.164Z,46.10
2019-05-01T04:19:53.781Z,46.10
2019-05-01T04:22:02.172Z,46.10
2019-05-01T04:24:05.640Z,45.90
2019-05-01T04:26:08.270Z,45.90
2019-05-01T04:28:16.582Z,45.90
2019-05-01T04:30:25.035Z,45.90
2019-05-01T04:32:27.749Z,45.80
2019-05-01T04:34:34.202Z,45.80
2019-05-01T04:36:42.484Z,46.10
2019-05-01T04:38:45.109Z,46.00
2019-05-01T04:40:47.709Z,46.10
2019-05-01T04:42:50.508Z,46.30
2019-05-01T04:44:53.412Z,46.40
2019-05-01T04:46:56.834Z,46.50
2019-05-01T04:48:59.666Z,46.40
2019-05-01T04:51:02.294Z,46.40
2019-05-01T04:53:04.892Z,46.50
2019-05-01T04:55:07.504Z,46.70
2019-05-01T04:57:10.982Z,47.00
2019-05-01T04:59:13.599Z,47.00
2019-05-01T05:01:16.231Z,47.10
2019-05-01T05:03:19.234Z,47.20
2019-05-01T05:05:22.603Z,47.50
2019-05-01T05:07:25.201Z,47.40
2019-05-01T05:09:41.795Z,47.40
2019-05-01T05:11:46.019Z,47.50
2019-05-01T05:13:54.976Z,47.70
2019-05-01T05:16:01.189Z,47.60
2019-05-01T05:18:04.543Z,47.80
2019-05-01T05:20:07.229Z,47.80
2019-05-01T05:22:09.872Z,47.60
2019-05-01T05:24:12.473Z,47.70
2019-05-01T05:26:15.169Z,47.80
2019-05-01T05:28:17.795Z,47.90
2019-05-01T05:30:20.391Z,48.10
2019-05-01T05:32:23.016Z,48.10
2019-05-01T05:34:26.411Z,47.80
2019-05-01T05:36:29.883Z,47.50
2019-05-01T05:38:33.959Z,47.40
2019-05-01T05:40:36.616Z,47.30
2019-05-01T05:42:39.226Z,47.10
2019-05-01T05:44:41.916Z,46.90
2019-05-01T05:46:44.555Z,47.10
2019-05-01T05:48:47.142Z,47.20
2019-05-01T05:51:06.605Z,47.40
2019-05-01T05:53:09.848Z,47.60
2019-05-01T05:55:28.267Z,47.80
2019-05-01T05:57:34.119Z,47.60
2019-05-01T05:59:42.880Z,47.80
2019-05-01T06:01:47.253Z,47.80
2019-05-01T06:04:04.760Z,47.90
2019-05-01T06:06:08.908Z,47.90
2019-05-01T06:08:12.289Z,48.00
2019-05-01T06:10:18.438Z,48.10
2019-05-01T06:12:29.327Z,48.00
2019-05-01T06:14:38.429Z,48.10
2019-05-01T06:16:46.859Z,48.00
2019-05-01T06:18:51.080Z,48.10
2019-05-01T06:21:02.185Z,48.30
2019-05-01T06:23:07.177Z,48.90
2019-05-01T06:25:29.413Z,48.30
2019-05-01T06:27:32.885Z,48.20
2019-05-01T06:29:37.185Z,48.10
2019-05-01T06:31:38.160Z,48.40
2019-05-01T06:33:44.301Z,48.60
2019-05-01T06:35:45.017Z,48.60
2019-05-01T06:38:03.346Z,48.50
2019-05-01T06:40:05.936Z,48.60
2019-05-01T06:42:09.857Z,48.40
2019-05-01T06:44:12.010Z,48.60
2019-05-01T06:46:27.226Z,48.60
2019-05-01T06:48:27.144Z,48.60
2019-05-01T06:50:31.945Z,48.50
2019-05-01T06:52:32.522Z,48.60
2019-05-01T06:54:35.187Z,48.70
2019-05-01T06:56:37.893Z,48.80
2019-05-01T06:58:40.496Z,48.90
2019-05-01T07:00:44.295Z,49.10
2019-05-01T07:02:47.376Z,49.20
2019-05-01T07:04:50.851Z,49.10
2019-05-01T07:06:53.477Z,49.10
2019-05-01T07:08:56.414Z,49.10
2019-05-01T07:10:59.160Z,49.10
2019-05-01T07:13:05.012Z,49.30
2019-05-01T07:15:05.831Z,49.40
2019-05-01T07:17:13.144Z,49.40
2019-05-01T07:19:12.035Z,49.40
2019-05-01T07:21:17.067Z,49.50
2019-05-01T07:23:19.756Z,49.30
2019-05-01T07:25:23.568Z,49.30
2019-05-01T07:27:26.490Z,49.30
2019-05-01T07:29:29.211Z,49.30
2019-05-01T07:31:32.656Z,49.20
2019-05-01T07:33:35.675Z,49.20
2019-05-01T07:35:39.088Z,49.10
2019-05-01T07:37:42.534Z,49.30
2019-05-01T07:39:49.908Z,49.10
2019-05-01T07:41:49.154Z,50.00
2019-05-01T07:44:01.917Z,49.20
2019-05-01T07:46:05.489Z,49.20
2019-05-01T07:48:08.960Z,49.20
2019-05-01T07:50:12.336Z,50.00
2019-05-01T07:52:17.155Z,49.20
2019-05-01T07:54:19.237Z,49.30
2019-05-01T07:56:28.010Z,49.20
2019-05-01T07:58:26.945Z,49.60
2019-05-01T08:00:41.557Z,49.10
2019-05-01T08:02:43.072Z,49.10
2019-05-01T08:04:46.493Z,49.00
2019-05-01T08:06:52.152Z,48.90
2019-05-01T08:08:52.612Z,48.90
2019-05-01T08:10:59.903Z,48.80
2019-05-01T08:13:00.352Z,48.80
2019-05-01T08:15:02.894Z,48.80
2019-05-01T08:17:05.543Z,48.80
2019-05-01T08:19:12.736Z,48.70
2019-05-01T08:21:25.616Z,48.60
2019-05-01T08:23:23.836Z,48.50
2019-05-01T08:25:28.721Z,48.40
2019-05-01T08:27:44.734Z,48.30
2019-05-01T08:29:49.511Z,48.30
2019-05-01T08:31:58.741Z,48.20
2019-05-01T08:34:05.271Z,48.30
2019-05-01T08:36:11.748Z,48.40
2019-05-01T08:38:10.525Z,48.30
2019-05-01T08:40:16.026Z,48.30
2019-05-01T08:42:17.431Z,48.10
2019-05-01T08:44:24.835Z,48.10
2019-05-01T08:46:42.048Z,47.90
2019-05-01T08:48:45.613Z,47.90
2019-05-01T08:50:48.213Z,47.80
2019-05-01T08:52:50.872Z,47.80
2019-05-01T08:54:54.887Z,48.00
2019-05-01T08:56:58.116Z,47.70
2019-05-01T08:58:59.592Z,47.60
2019-05-01T09:01:02.245Z,47.60
2019-05-01T09:03:08.704Z,47.40
2019-05-01T09:05:27.016Z,47.20
2019-05-01T09:07:14.609Z,47.10
2019-05-01T09:09:14.521Z,46.90
2019-05-01T09:11:18.630Z,46.80
2019-05-01T09:13:23.772Z,46.80
2019-05-01T09:15:23.982Z,46.60
2019-05-01T09:17:28.092Z,46.40
2019-05-01T09:19:30.820Z,46.40
2019-05-01T09:21:37.631Z,46.30
2019-05-01T09:23:36.053Z,46.30
2019-05-01T09:25:41.400Z,46.20
2019-05-01T09:27:44.004Z,46.10
2019-05-01T09:29:51.593Z,45.90
2019-05-01T09:31:51.238Z,45.80
2019-05-01T09:33:53.901Z,45.70
2019-05-01T09:35:56.528Z,45.60
2019-05-01T09:37:59.992Z,45.60
2019-05-01T09:40:04.070Z,45.40
2019-05-01T09:42:06.858Z,45.20
2019-05-01T09:44:10.677Z,45.10
2019-05-01T09:46:13.745Z,44.80
2019-05-01T09:48:16.366Z,44.80
2019-05-01T09:50:19.202Z,44.90
2019-05-01T09:52:25.536Z,44.40
2019-05-01T09:54:31.289Z,44.30
2019-05-01T09:56:33.916Z,44.00
2019-05-01T09:58:36.546Z,43.80
2019-05-01T10:00:39.172Z,43.60
2019-05-01T10:02:43.822Z,43.40
2019-05-01T10:04:45.946Z,43.20
2019-05-01T10:06:52.224Z,43.10
2019-05-01T10:08:52.552Z,43.00
2019-05-01T10:10:55.143Z,42.80
2019-05-01T10:12:57.756Z,42.50
2019-05-01T10:15:00.460Z,42.50
2019-05-01T10:17:04.036Z,42.30
2019-05-01T10:19:07.401Z,42.30
2019-05-01T10:21:10.031Z,42.30
2019-05-01T10:23:13.027Z,42.20
2019-05-01T10:25:15.818Z,42.20
2019-05-01T10:27:19.212Z,42.10
2019-05-01T10:29:27.624Z,41.70
2019-05-01T10:31:36.570Z,42.00
2019-05-01T10:33:40.759Z,41.30
2019-05-01T10:35:43.541Z,41.20
2019-05-01T10:37:46.840Z,41.70
2019-05-01T10:39:50.150Z,41.00
2019-05-01T10:41:52.184Z,40.90
2019-05-01T10:43:54.805Z,40.70
2019-05-01T10:45:58.213Z,40.90
2019-05-01T10:48:00.818Z,40.90
2019-05-01T10:50:03.425Z,40.90
2019-05-01T10:52:13.962Z,40.50
2019-05-01T10:54:10.296Z,40.40
2019-05-01T10:56:12.904Z,40.30
2019-05-01T10:58:18.079Z,39.70
2019-05-01T11:00:18.933Z,39.60
2019-05-01T11:02:21.631Z,39.30
2019-05-01T11:04:24.256Z,39.20
2019-05-01T11:06:26.854Z,38.90
2019-05-01T11:08:29.448Z,38.80
2019-05-01T11:10:32.086Z,38.60
2019-05-01T11:12:34.688Z,38.50
2019-05-01T11:14:37.379Z,38.50
2019-05-01T11:16:40.003Z,38.50
2019-05-01T11:18:42.600Z,38.50
2019-05-01T11:20:45.199Z,38.30
2019-05-01T11:22:47.831Z,38.30
2019-05-01T11:24:50.450Z,38.20
2019-05-01T11:26:54.559Z,38.10
2019-05-01T11:28:57.564Z,38.00
2019-05-01T11:31:01.039Z,37.40
2019-05-01T11:33:03.632Z,37.30
2019-05-01T11:35:07.109Z,37.60
2019-05-01T11:37:11.377Z,37.50
2019-05-01T11:39:20.624Z,37.30
2019-05-01T11:41:38.131Z,37.20
2019-05-01T11:43:40.737Z,37.10
2019-05-01T11:45:43.348Z,37.20
2019-05-01T11:47:46.745Z,37.00
2019-05-01T11:49:50.113Z,36.70
2019-05-01T11:51:52.704Z,36.70
2019-05-01T11:53:56.200Z,37.20
2019-05-01T11:55:59.670Z,36.40
2019-05-01T11:58:02.263Z,36.30
2019-05-01T12:00:09.661Z,36.20
2019-05-01T12:02:13.021Z,36.10
2019-05-01T12:04:15.760Z,36.10
2019-05-01T12:06:23.018Z,35.90
2019-05-01T12:08:21.881Z,36.00
2019-05-01T12:10:24.572Z,36.20
2019-05-01T12:12:27.978Z,36.00
2019-05-01T12:14:30.580Z,35.90
2019-05-01T12:16:39.448Z,35.60
2019-05-01T12:18:43.140Z,35.40
2019-05-01T12:20:45.740Z,34.90
2019-05-01T12:22:51.371Z,35.20
2019-05-01T12:24:52.705Z,35.50
2019-05-01T12:26:56.084Z,35.90
2019-05-01T12:28:58.859Z,35.20
2019-05-01T12:31:01.521Z,35.40
2019-05-01T12:33:04.638Z,35.40
2019-05-01T12:35:07.260Z,35.30
2019-05-01T12:37:16.056Z,35.10
2019-05-01T12:39:20.365Z,34.80
2019-05-01T12:41:30.290Z,34.70
2019-05-01T12:43:32.924Z,34.50
2019-05-01T12:45:35.512Z,34.40
2019-05-01T12:47:40.641Z,34.30
2019-05-01T12:49:43.311Z,34.40
2019-05-01T12:51:46.017Z,34.30
2019-05-01T12:53:49.497Z,34.30
2019-05-01T12:55:57.944Z,34.30
2019-05-01T12:58:01.296Z,34.20
2019-05-01T13:00:08.984Z,34.10
2019-05-01T13:02:08.317Z,34.50
2019-05-01T13:04:12.436Z,34.40
2019-05-01T13:06:16.647Z,34.20
2019-05-01T13:08:19.233Z,34.10
2019-05-01T13:10:22.697Z,33.80
2019-05-01T13:12:26.797Z,33.70
2019-05-01T13:14:29.521Z,33.70
2019-05-01T13:16:32.120Z,33.60
2019-05-01T13:18:34.715Z,33.40
2019-05-01T13:20:37.349Z,33.40
2019-05-01T13:22:39.939Z,33.00
2019-05-01T13:24:51.257Z,32.90
2019-05-01T13:26:54.760Z,32.80
2019-05-01T13:29:13.792Z,32.30
2019-05-01T13:31:18.157Z,32.30
2019-05-01T13:33:21.644Z,31.90
2019-05-01T13:35:25.118Z,31.80
2019-05-01T13:37:27.722Z,31.70
2019-05-01T13:39:31.116Z,31.70
2019-05-01T13:41:33.712Z,31.60
2019-05-01T13:43:36.315Z,31.50
2019-05-01T13:45:38.951Z,31.50
2019-05-01T13:47:41.551Z,31.40
2019-05-01T13:49:44.142Z,31.10
2019-05-01T13:51:46.831Z,30.80
2019-05-01T13:53:49.433Z,30.60
2019-05-01T13:55:52.800Z,30.20
2019-05-01T13:57:55.742Z,30.10
2019-05-01T13:59:58.331Z,30.10
2019-05-01T14:02:01.030Z,30.00
2019-05-01T14:04:03.672Z,29.90
2019-05-01T14:06:06.382Z,29.50
2019-05-01T14:08:08.980Z,29.30
2019-05-01T14:10:12.453Z,29.40
2019-05-01T14:12:15.060Z,29.40
2019-05-01T14:14:17.667Z,29.40
2019-05-01T14:16:20.479Z,29.30
2019-05-01T14:18:23.076Z,29.10
2019-05-01T14:20:28.566Z,29.10
2019-05-01T14:22:31.785Z,29.00
2019-05-01T14:24:37.429Z,28.70
2019-05-01T14:26:40.023Z,28.50
2019-05-01T14:28:44.549Z,28.50
2019-05-01T14:30:48.016Z,28.60
2019-05-01T14:32:51.768Z,28.50
2019-05-01T14:34:54.024Z,28.40
2019-05-01T14:36:56.620Z,28.40
2019-05-01T14:38:59.212Z,28.30
2019-05-01T14:41:01.850Z,28.30
2019-05-01T14:43:04.459Z,28.20
2019-05-01T14:45:07.889Z,28.00
2019-05-01T14:47:11.368Z,27.70
2019-05-01T14:49:13.964Z,27.60
2019-05-01T14:51:17.316Z,27.50
2019-05-01T14:53:19.946Z,27.40
2019-05-01T14:55:22.553Z,27.50
2019-05-01T14:57:25.262Z,27.50
2019-05-01T14:59:28.069Z,27.50
2019-05-01T15:01:31.424Z,27.20
2019-05-01T15:03:34.048Z,27.20
2019-05-01T15:05:36.680Z,27.00
2019-05-01T15:07:43.785Z,26.80
2019-05-01T15:09:41.925Z,26.80
2019-05-01T15:11:44.731Z,27.00
2019-05-01T15:13:51.100Z,27.10
2019-05-01T15:15:56.308Z,26.90
2019-05-01T15:18:16.828Z,26.90
2019-05-01T15:20:20.183Z,26.50
2019-05-01T15:22:22.867Z,26.40
2019-05-01T15:24:25.524Z,26.40
2019-05-01T15:26:28.959Z,26.70
2019-05-01T15:28:32.312Z,26.60
2019-05-01T15:30:34.929Z,26.50
2019-05-01T15:32:38.300Z,26.70
2019-05-01T15:34:40.895Z,26.60
2019-05-01T15:36:43.578Z,26.50
2019-05-01T15:38:46.933Z,26.60
2019-05-01T15:40:55.097Z,26.60
2019-05-01T15:42:58.296Z,26.60
2019-05-01T15:45:01.007Z,26.60
2019-05-01T15:47:03.609Z,26.50
2019-05-01T15:49:07.002Z,26.30
2019-05-01T15:51:10.467Z,26.30
2019-05-01T15:53:13.063Z,26.20
2019-05-01T15:55:16.461Z,26.40
2019-05-01T15:57:19.929Z,26.40
2019-05-01T15:59:22.523Z,26.40
2019-05-01T16:01:26.023Z,26.40
2019-05-01T16:03:29.399Z,26.40
2019-05-01T16:05:31.989Z,26.40
2019-05-01T16:07:35.385Z,26.20
2019-05-01T16:09:38.853Z,26.20
2019-05-01T16:12:02.253Z,26.10
2019-05-01T16:14:04.920Z,26.00
2019-05-01T16:16:07.527Z,26.00
2019-05-01T16:18:10.113Z,25.80
2019-05-01T16:20:12.916Z,25.70
2019-05-01T16:22:15.504Z,25.50
2019-05-01T16:24:18.879Z,25.30
2019-05-01T16:26:21.500Z,25.20
2019-05-01T16:28:24.092Z,25.20
2019-05-01T16:30:26.693Z,25.10
2019-05-01T16:32:29.333Z,25.00
2019-05-01T16:34:31.929Z,24.90
2019-05-01T16:36:34.631Z,25.00
2019-05-01T16:38:58.093Z,24.90
2019-05-01T16:41:01.504Z,25.00
2019-05-01T16:43:04.861Z,25.10
2019-05-01T16:45:07.554Z,25.60
2019-05-01T16:47:10.152Z,24.70
2019-05-01T16:49:13.508Z,24.50
2019-05-01T16:51:17.041Z,24.40
2019-05-01T16:53:20.402Z,24.40
2019-05-01T16:55:22.996Z,24.30
2019-05-01T16:57:25.893Z,24.20
2019-05-01T16:59:29.362Z,24.50
2019-05-01T17:01:37.768Z,24.40
2019-05-01T17:03:46.119Z,24.50
2019-05-01T17:05:51.377Z,24.40
2019-05-01T17:07:55.473Z,24.50
2019-05-01T17:09:59.473Z,24.60
2019-05-01T17:12:02.070Z,24.80
2019-05-01T17:14:04.712Z,24.70
2019-05-01T17:16:07.343Z,24.60
2019-05-01T17:18:09.960Z,24.60
2019-05-01T17:20:12.559Z,24.60
2019-05-01T17:22:16.204Z,24.70
2019-05-01T17:24:17.816Z,24.60
2019-05-01T17:26:20.423Z,24.70
2019-05-01T17:28:23.040Z,24.90
2019-05-01T17:30:43.512Z,25.00
2019-05-01T17:32:46.987Z,25.10
2019-05-01T17:34:49.805Z,25.00
2019-05-01T17:36:52.420Z,25.10
2019-05-01T17:38:55.019Z,25.10
2019-05-01T17:40:57.828Z,25.10
2019-05-01T17:43:00.424Z,25.30
2019-05-01T17:45:03.145Z,25.40
2019-05-01T17:47:05.782Z,25.70
2019-05-01T17:49:09.327Z,26.00
2019-05-01T17:51:11.872Z,26.70
2019-05-01T17:53:14.493Z,26.20
2019-05-01T17:55:17.959Z,26.40
2019-05-01T17:57:20.548Z,26.30
2019-05-01T17:59:23.959Z,26.60
2019-05-01T18:01:33.068Z,26.60
2019-05-01T18:03:53.308Z,26.50
2019-05-01T18:06:10.894Z,26.50
2019-05-01T18:08:14.257Z,26.60
2019-05-01T18:10:16.851Z,26.60
2019-05-01T18:12:23.493Z,26.80
2019-05-01T18:14:22.976Z,26.70
2019-05-01T18:16:25.610Z,26.80
2019-05-01T18:18:28.688Z,26.80
2019-05-01T18:20:32.156Z,26.90
2019-05-01T18:22:46.676Z,26.80
2019-05-01T18:25:07.102Z,26.80
2019-05-01T18:27:19.160Z,27.00
2019-05-01T18:29:24.024Z,27.30
2019-05-01T18:31:27.896Z,27.30
2019-05-01T18:33:30.181Z,27.20
2019-05-01T18:35:32.776Z,27.40
2019-05-01T18:37:37.696Z,27.40
2019-05-01T18:39:41.399Z,27.50
2019-05-01T18:41:46.126Z,27.50
2019-05-01T18:43:48.902Z,27.50
2019-05-01T18:45:52.403Z,27.60
2019-05-01T18:47:55.172Z,27.50
2019-05-01T18:49:58.055Z,27.70
2019-05-01T18:52:01.588Z,28.00
2019-05-01T18:54:04.542Z,27.90
2019-05-01T18:56:07.163Z,28.00
2019-05-01T18:58:09.989Z,28.20
2019-05-01T19:00:13.638Z,28.70
2019-05-01T19:02:20.463Z,28.70
2019-05-01T19:04:23.481Z,28.90
2019-05-01T19:06:21.840Z,29.10
2019-05-01T19:08:25.329Z,29.50
2019-05-01T19:10:27.964Z,29.50
2019-05-01T19:12:31.374Z,29.70
2019-05-01T19:14:34.368Z,30.00
2019-05-01T19:16:39.921Z,30.10
2019-05-01T19:18:41.316Z,30.00
2019-05-01T19:20:44.401Z,30.20
2019-05-01T19:22:47.252Z,30.50
2019-05-01T19:24:50.954Z,30.80
2019-05-01T19:26:54.546Z,31.00
2019-05-01T19:28:58.189Z,31.10
2019-05-01T19:31:00.804Z,31.10
2019-05-01T19:33:04.974Z,31.40
2019-05-01T19:35:07.705Z,31.40
2019-05-01T19:37:11.173Z,31.60
2019-05-01T19:39:15.322Z,31.70
2019-05-01T19:41:17.932Z,31.60
2019-05-01T19:43:20.543Z,31.70
2019-05-01T19:45:24.436Z,32.20
2019-05-01T19:47:27.046Z,32.10
2019-05-01T19:49:30.851Z,32.80
2019-05-01T19:51:32.276Z,32.30
2019-05-01T19:53:35.656Z,32.70
2019-05-01T19:55:39.871Z,32.60
2019-05-01T19:57:41.005Z,32.80
2019-05-01T19:59:45.213Z,33.00
2019-05-01T20:01:49.666Z,32.90
2019-05-01T20:03:50.497Z,33.20
2019-05-01T20:05:53.975Z,33.40
2019-05-01T20:07:57.882Z,33.60
2019-05-01T20:10:00.977Z,33.70
2019-05-01T20:12:04.397Z,33.80
2019-05-01T20:14:07.016Z,33.80
2019-05-01T20:16:11.153Z,34.00
2019-05-01T20:18:14.680Z,34.20
2019-05-01T20:20:17.864Z,34.00
2019-05-01T20:22:20.568Z,34.20
2019-05-01T20:24:23.161Z,34.30
2019-05-01T20:26:26.848Z,34.50
2019-05-01T20:28:28.523Z,34.50
2019-05-01T20:30:31.217Z,34.60
2019-05-01T20:32:34.684Z,34.70
2019-05-01T20:34:37.416Z,34.70
2019-05-01T20:36:40.016Z,34.70
2019-05-01T20:38:42.612Z,34.90
2019-05-01T20:40:45.428Z,35.10
2019-05-01T20:42:48.028Z,35.10
2019-05-01T20:45:03.777Z,35.10
2019-05-01T20:46:58.558Z,35.30
2019-05-01T20:49:01.356Z,35.30
2019-05-01T20:50:59.412Z,35.40
2019-05-01T20:53:03.069Z,35.50
2019-05-01T20:55:05.665Z,35.30
2019-05-01T20:57:13.571Z,35.10
2019-05-01T20:59:13.569Z,35.50
2019-05-01T21:01:17.777Z,35.70
2019-05-01T21:03:21.878Z,35.80
2019-05-01T21:05:31.219Z,35.80
2019-05-01T21:07:33.824Z,35.80
2019-05-01T21:09:47.369Z,36.00
2019-05-01T21:11:42.157Z,36.00
2019-05-01T21:13:44.483Z,35.90
2019-05-01T21:15:47.404Z,36.10
2019-05-01T21:17:50.729Z,36.10
2019-05-01T21:19:54.322Z,36.30
2019-05-01T21:21:55.185Z,36.40
2019-05-01T21:23:57.804Z,36.50
2019-05-01T21:26:00.421Z,36.60
2019-05-01T21:28:04.129Z,36.60
2019-05-01T21:30:06.607Z,36.70
2019-05-01T21:32:09.763Z,36.80
2019-05-01T21:34:14.373Z,36.90
2019-05-01T21:36:15.807Z,37.10
2019-05-01T21:38:18.396Z,36.90
2019-05-01T21:40:22.931Z,37.00
2019-05-01T21:42:25.153Z,37.00
2019-05-01T21:44:27.752Z,37.10
2019-05-01T21:46:30.999Z,37.00
2019-05-01T21:48:34.502Z,36.50
2019-05-01T21:50:37.973Z,37.00
2019-05-01T21:52:40.563Z,36.90
2019-05-01T21:54:44.775Z,37.10
2019-05-01T21:56:48.132Z,37.20
2019-05-01T21:58:50.827Z,37.10
2019-05-01T22:00:55.180Z,37.10
2019-05-01T22:02:56.997Z,37.20
2019-05-01T22:05:03.776Z,37.20
2019-05-01T22:07:02.349Z,37.20
2019-05-01T22:09:04.953Z,37.20
2019-05-01T22:11:08.383Z,37.10
2019-05-01T22:13:11.024Z,37.10
2019-05-01T22:15:29.261Z,37.20
2019-05-01T22:17:52.472Z,37.10
2019-05-01T22:19:55.112Z,37.10
2019-05-01T22:22:03.439Z,37.00
2019-05-01T22:24:21.924Z,37.20
2019-05-01T22:26:25.520Z,37.40
2019-05-01T22:28:30.746Z,37.30
2019-05-01T22:30:34.047Z,37.50
2019-05-01T22:32:46.601Z,37.70
2019-05-01T22:34:53.856Z,37.90
2019-05-01T22:36:57.226Z,38.10
2019-05-01T22:39:02.224Z,38.10
2019-05-01T22:41:06.928Z,38.20
2019-05-01T22:43:06.981Z,38.20
2019-05-01T22:45:09.614Z,38.30
2019-05-01T22:47:15.041Z,39.10
2019-05-01T22:49:15.660Z,38.30
2019-05-01T22:51:19.049Z,38.70
2019-05-01T22:53:22.526Z,38.80
2019-05-01T22:55:25.692Z,38.80
2019-05-01T22:57:27.761Z,38.80
2019-05-01T22:59:30.452Z,39.00
2019-05-01T23:01:33.077Z,39.10
2019-05-01T23:03:40.852Z,39.30
2019-05-01T23:05:39.195Z,39.70
2019-05-01T23:07:41.800Z,39.60
2019-05-01T23:09:45.190Z,39.70
2019-05-01T23:11:48.657Z,39.70
2019-05-01T23:13:51.331Z,39.60
2019-05-01T23:15:56.345Z,39.80
2019-05-01T23:17:57.380Z,39.70
2019-05-01T23:20:04.023Z,39.80
2019-05-01T23:22:03.570Z,39.90
2019-05-01T23:24:06.196Z,39.80
2019-05-01T23:26:11.599Z,39.70
2019-05-01T23:28:12.319Z,39.70
2019-05-01T23:30:14.935Z,39.70
2019-05-01T23:32:17.535Z,39.70
2019-05-01T23:34:21.172Z,39.80
2019-05-01T23:36:23.978Z,39.90
2019-05-01T23:38:25.520Z,39.90
2019-05-01T23:40:28.274Z,39.90
2019-05-01T23:42:31.636Z,40.20
2019-05-01T23:44:38.133Z,40.20
2019-05-01T23:46:37.751Z,40.50
2019-05-01T23:48:41.224Z,40.60
2019-05-01T23:50:43.824Z,40.60
2019-05-01T23:52:47.220Z,40.80
2019-05-01T23:54:49.819Z,40.80
2019-05-01T23:56:52.413Z,40.80
2019-05-01T23:58:55.032Z,40.80
